createdAt,value
2018-02-24T00:00:02.624Z,959.98
2018-02-24T00:01:02.582Z,959.98
2018-02-24T00:02:02.541Z,960.00
2018-02-24T00:03:02.498Z,960.02
2018-02-24T00:04:02.455Z,960.01
2018-02-24T00:05:02.413Z,960.02
2018-02-24T00:06:02.371Z,960.06
2018-02-24T00:07:02.328Z,960.06
2018-02-24T00:08:02.289Z,960.09
2018-02-24T00:09:02.243Z,960.08
2018-02-24T00:10:02.200Z,960.06
2018-02-24T00:11:02.163Z,960.06
2018-02-24T00:12:02.156Z,960.07
2018-02-24T00:13:02.074Z,960.09
2018-02-24T00:14:02.030Z,960.09
2018-02-24T00:15:01.989Z,960.06
2018-02-24T00:16:01.947Z,960.06
2018-02-24T00:17:01.903Z,960.04
2018-02-24T00:18:01.861Z,960.08
2018-02-24T00:19:01.842Z,960.08
2018-02-24T00:20:01.778Z,960.11
2018-02-24T00:21:01.737Z,960.07
2018-02-24T00:22:01.692Z,960.07
2018-02-24T00:23:01.650Z,960.09
2018-02-24T00:24:01.605Z,960.07
2018-02-24T00:25:01.564Z,960.10
2018-02-24T00:26:01.547Z,960.16
2018-02-24T00:27:01.480Z,960.13
2018-02-24T00:28:01.434Z,960.14
2018-02-24T00:29:01.397Z,960.19
2018-02-24T00:30:02.361Z,960.19
2018-02-24T00:31:01.310Z,960.23
2018-02-24T00:32:01.267Z,960.18
2018-02-24T00:33:01.223Z,960.23
2018-02-24T00:34:01.184Z,960.24
2018-02-24T00:35:01.143Z,960.24
2018-02-24T00:36:01.103Z,960.22
2018-02-24T00:37:01.055Z,960.18
2018-02-24T00:38:01.015Z,960.21
2018-02-24T00:39:00.971Z,960.21
2018-02-24T00:40:00.929Z,960.19
2018-02-24T00:41:00.886Z,960.18
2018-02-24T00:42:00.844Z,960.16
2018-02-24T00:43:00.806Z,960.19
2018-02-24T00:44:00.759Z,960.10
2018-02-24T00:45:00.715Z,960.10
2018-02-24T00:46:00.676Z,960.11
2018-02-24T00:47:00.631Z,960.10
2018-02-24T00:48:00.593Z,960.11
2018-02-24T00:49:00.548Z,960.08
2018-02-24T00:50:00.512Z,960.09
2018-02-24T00:51:00.471Z,960.11
2018-02-24T00:52:00.420Z,960.09
2018-02-24T00:53:00.418Z,960.09
2018-02-24T00:54:00.336Z,960.08
2018-02-24T00:55:00.293Z,960.10
2018-02-24T00:56:00.248Z,960.03
2018-02-24T00:57:00.209Z,960.11
2018-02-24T00:58:00.169Z,960.06
2018-02-24T00:59:00.125Z,960.04
2018-02-24T01:00:00.084Z,960.05
2018-02-24T01:01:00.045Z,960.05
2018-02-24T01:01:59.999Z,960.02
2018-02-24T01:02:59.958Z,960.05
2018-02-24T01:03:59.919Z,960.04
2018-02-24T01:04:59.868Z,960.01
2018-02-24T01:05:59.829Z,960.05
2018-02-24T01:06:59.790Z,960.01
2018-02-24T01:07:59.746Z,960.03
2018-02-24T01:08:59.702Z,960.04
2018-02-24T01:09:59.661Z,960.10
2018-02-24T01:10:59.616Z,960.10
2018-02-24T01:11:59.575Z,960.08
2018-02-24T01:12:59.534Z,960.07
2018-02-24T01:13:59.491Z,960.12
2018-02-24T01:14:59.455Z,960.10
2018-02-24T01:15:59.409Z,960.07
2018-02-24T01:16:59.365Z,960.07
2018-02-24T01:17:59.322Z,960.05
2018-02-24T01:18:59.280Z,960.02
2018-02-24T01:19:59.238Z,960.03
2018-02-24T01:20:59.194Z,960.03
2018-02-24T01:21:59.152Z,960.06
2018-02-24T01:22:59.111Z,960.05
2018-02-24T01:23:59.067Z,960.11
2018-02-24T01:24:59.026Z,960.09
2018-02-24T01:25:58.987Z,960.08
2018-02-24T01:26:58.942Z,960.10
2018-02-24T01:27:58.898Z,960.11
2018-02-24T01:28:58.857Z,960.13
2018-02-24T01:29:58.814Z,960.12
2018-02-24T01:30:58.776Z,960.14
2018-02-24T01:31:58.731Z,960.12
2018-02-24T01:32:58.687Z,960.08
2018-02-24T01:33:58.645Z,960.08
2018-02-24T01:34:58.604Z,960.05
2018-02-24T01:35:58.562Z,960.04
2018-02-24T01:36:58.519Z,960.03
2018-02-24T01:37:58.474Z,960.00
2018-02-24T01:38:58.434Z,959.98
2018-02-24T01:39:58.402Z,959.97
2018-02-24T01:40:58.350Z,959.97
2018-02-24T01:41:58.307Z,959.91
2018-02-24T01:42:58.264Z,959.95
2018-02-24T01:43:58.223Z,959.90
2018-02-24T01:44:58.182Z,959.89
2018-02-24T01:45:58.140Z,959.93
2018-02-24T01:46:58.096Z,959.92
2018-02-24T01:47:58.056Z,959.85
2018-02-24T01:48:58.011Z,959.90
2018-02-24T01:49:57.976Z,959.91
2018-02-24T01:50:57.921Z,959.91
2018-02-24T01:51:57.883Z,959.90
2018-02-24T01:52:57.842Z,959.92
2018-02-24T01:53:57.801Z,959.91
2018-02-24T01:54:57.759Z,959.89
2018-02-24T01:55:57.713Z,959.97
2018-02-24T01:56:57.674Z,959.92
2018-02-24T01:57:57.629Z,959.94
2018-02-24T01:58:57.608Z,959.95
2018-02-24T01:59:57.543Z,959.93
2018-02-24T02:00:57.501Z,959.95
2018-02-24T02:01:57.463Z,959.93
2018-02-24T02:02:57.416Z,959.97
2018-02-24T02:03:57.375Z,959.98
2018-02-24T02:04:57.332Z,959.95
2018-02-24T02:05:57.289Z,959.96
2018-02-24T02:06:57.249Z,959.95
2018-02-24T02:07:57.203Z,959.91
2018-02-24T02:08:57.162Z,960.00
2018-02-24T02:09:57.118Z,960.02
2018-02-24T02:10:57.078Z,959.97
2018-02-24T02:11:57.034Z,960.04
2018-02-24T02:12:56.991Z,960.01
2018-02-24T02:13:56.949Z,960.01
2018-02-24T02:14:56.911Z,960.05
2018-02-24T02:15:56.863Z,960.07
2018-02-24T02:16:56.820Z,960.05
2018-02-24T02:17:56.782Z,960.06
2018-02-24T02:18:56.736Z,960.05
2018-02-24T02:19:56.694Z,960.02
2018-02-24T02:20:56.650Z,960.01
2018-02-24T02:21:56.609Z,959.97
2018-02-24T02:22:56.566Z,960.04
2018-02-24T02:23:56.523Z,960.03
2018-02-24T02:24:56.481Z,960.01
2018-02-24T02:25:56.438Z,960.03
2018-02-24T02:26:56.396Z,960.03
2018-02-24T02:27:56.354Z,960.01
2018-02-24T02:28:56.311Z,960.00
2018-02-24T02:29:56.268Z,960.00
2018-02-24T02:30:56.226Z,960.00
2018-02-24T02:31:56.183Z,959.99
2018-02-24T02:32:56.145Z,960.01
2018-02-24T02:33:56.099Z,959.97
2018-02-24T02:34:56.056Z,959.99
2018-02-24T02:35:56.013Z,959.98
2018-02-24T02:36:55.972Z,960.03
2018-02-24T02:37:55.930Z,959.99
2018-02-24T02:38:55.887Z,959.99
2018-02-24T02:39:55.842Z,960.04
2018-02-24T02:40:55.801Z,960.04
2018-02-24T02:41:55.759Z,960.01
2018-02-24T02:42:55.722Z,960.05
2018-02-24T02:43:55.674Z,960.05
2018-02-24T02:44:55.631Z,960.07
2018-02-24T02:45:55.591Z,960.08
2018-02-24T02:46:55.546Z,960.07
2018-02-24T02:48:02.318Z,960.10
2018-02-24T02:48:55.464Z,960.10
2018-02-24T02:49:55.419Z,960.14
2018-02-24T02:50:55.377Z,960.13
2018-02-24T02:51:55.335Z,960.11
2018-02-24T02:52:55.290Z,960.11
2018-02-24T02:53:55.249Z,960.16
2018-02-24T02:54:55.204Z,960.12
2018-02-24T02:55:55.167Z,960.14
2018-02-24T02:56:55.132Z,960.13
2018-02-24T02:57:55.081Z,960.09
2018-02-24T02:58:55.034Z,960.10
2018-02-24T02:59:54.996Z,960.08
2018-02-24T03:00:54.951Z,960.12
2018-02-24T03:01:54.920Z,960.11
2018-02-24T03:02:54.874Z,960.08
2018-02-24T03:03:54.830Z,960.11
2018-02-24T03:04:54.791Z,960.11
2018-02-24T03:05:54.744Z,960.09
2018-02-24T03:06:54.699Z,960.09
2018-02-24T03:07:54.655Z,960.12
2018-02-24T03:08:54.615Z,960.09
2018-02-24T03:09:54.572Z,960.09
2018-02-24T03:10:54.530Z,960.16
2018-02-24T03:11:54.487Z,960.11
2018-02-24T03:12:54.445Z,960.10
2018-02-24T03:13:54.402Z,960.12
2018-02-24T03:14:54.360Z,960.16
2018-02-24T03:15:54.316Z,960.17
2018-02-24T03:16:54.274Z,960.16
2018-02-24T03:17:54.240Z,960.19
2018-02-24T03:18:54.191Z,960.18
2018-02-24T03:19:54.148Z,960.21
2018-02-24T03:20:54.105Z,960.16
2018-02-24T03:21:54.063Z,960.18
2018-02-24T03:22:54.024Z,960.19
2018-02-24T03:23:53.980Z,960.20
2018-02-24T03:24:53.940Z,960.21
2018-02-24T03:25:53.894Z,960.21
2018-02-24T03:26:53.851Z,960.24
2018-02-24T03:27:53.812Z,960.23
2018-02-24T03:28:53.768Z,960.26
2018-02-24T03:29:53.729Z,960.23
2018-02-24T03:30:53.683Z,960.24
2018-02-24T03:31:53.638Z,960.24
2018-02-24T03:32:53.596Z,960.24
2018-02-24T03:33:53.557Z,960.26
2018-02-24T03:34:53.529Z,960.26
2018-02-24T03:35:53.470Z,960.30
2018-02-24T03:36:53.428Z,960.36
2018-02-24T03:37:53.385Z,960.30
2018-02-24T03:38:53.342Z,960.29
2018-02-24T03:39:53.301Z,960.30
2018-02-24T03:40:53.258Z,960.27
2018-02-24T03:41:53.217Z,960.30
2018-02-24T03:42:53.173Z,960.30
2018-02-24T03:43:53.131Z,960.28
2018-02-24T03:44:53.090Z,960.28
2018-02-24T03:45:53.052Z,960.27
2018-02-24T03:46:53.003Z,960.33
2018-02-24T03:47:52.963Z,960.30
2018-02-24T03:48:52.918Z,960.28
2018-02-24T03:49:52.877Z,960.36
2018-02-24T03:50:52.834Z,960.33
2018-02-24T03:51:52.792Z,960.33
2018-02-24T03:52:52.752Z,960.35
2018-02-24T03:53:52.707Z,960.39
2018-02-24T03:54:52.667Z,960.40
2018-02-24T03:55:52.620Z,960.40
2018-02-24T03:56:52.579Z,960.38
2018-02-24T03:57:52.537Z,960.37
2018-02-24T03:58:52.496Z,960.38
2018-02-24T03:59:52.451Z,960.38
2018-02-24T04:00:52.412Z,960.38
2018-02-24T04:01:52.368Z,960.38
2018-02-24T04:02:52.329Z,960.40
2018-02-24T04:03:52.282Z,960.41
2018-02-24T04:04:52.243Z,960.45
2018-02-24T04:05:52.201Z,960.43
2018-02-24T04:06:52.157Z,960.43
2018-02-24T04:07:52.112Z,960.49
2018-02-24T04:08:52.070Z,960.47
2018-02-24T04:09:52.026Z,960.50
2018-02-24T04:10:51.984Z,960.50
2018-02-24T04:11:51.943Z,960.51
2018-02-24T04:12:51.898Z,960.48
2018-02-24T04:13:51.857Z,960.46
2018-02-24T04:14:51.813Z,960.52
2018-02-24T04:15:51.770Z,960.53
2018-02-24T04:16:51.728Z,960.59
2018-02-24T04:17:51.680Z,960.59
2018-02-24T04:18:51.645Z,960.61
2018-02-24T04:19:51.600Z,960.53
2018-02-24T04:20:51.567Z,960.55
2018-02-24T04:21:51.517Z,960.52
2018-02-24T04:22:51.472Z,960.52
2018-02-24T04:23:51.430Z,960.50
2018-02-24T04:24:51.387Z,960.50
2018-02-24T04:25:51.350Z,960.46
2018-02-24T04:26:51.303Z,960.45
2018-02-24T04:27:51.258Z,960.46
2018-02-24T04:28:51.219Z,960.47
2018-02-24T04:29:51.175Z,960.51
2018-02-24T04:30:51.132Z,960.54
2018-02-24T04:31:51.090Z,960.53
2018-02-24T04:32:51.049Z,960.57
2018-02-24T04:33:51.004Z,960.56
2018-02-24T04:34:50.960Z,960.57
2018-02-24T04:35:50.920Z,960.60
2018-02-24T04:36:50.877Z,960.60
2018-02-24T04:37:50.833Z,960.64
2018-02-24T04:38:50.795Z,960.62
2018-02-24T04:39:50.747Z,960.64
2018-02-24T04:40:50.704Z,960.63
2018-02-24T04:41:50.662Z,960.61
2018-02-24T04:42:50.621Z,960.60
2018-02-24T04:43:50.574Z,960.63
2018-02-24T04:44:50.533Z,960.65
2018-02-24T04:45:50.493Z,960.66
2018-02-24T04:46:50.450Z,960.67
2018-02-24T04:47:50.407Z,960.65
2018-02-24T04:48:50.365Z,960.69
2018-02-24T04:49:50.324Z,960.68
2018-02-24T04:50:50.280Z,960.70
2018-02-24T04:51:50.231Z,960.71
2018-02-24T04:52:50.195Z,960.72
2018-02-24T04:53:50.152Z,960.70
2018-02-24T04:54:50.108Z,960.67
2018-02-24T04:55:50.066Z,960.68
2018-02-24T04:56:50.023Z,960.70
2018-02-24T04:57:49.982Z,960.68
2018-02-24T04:58:49.940Z,960.71
2018-02-24T04:59:49.896Z,960.64
2018-02-24T05:00:49.853Z,960.66
2018-02-24T05:01:49.812Z,960.67
2018-02-24T05:02:49.769Z,960.68
2018-02-24T05:03:49.724Z,960.72
2018-02-24T05:04:49.684Z,960.68
2018-02-24T05:05:49.640Z,960.66
2018-02-24T05:06:49.598Z,960.70
2018-02-24T05:07:49.554Z,960.70
2018-02-24T05:08:49.512Z,960.67
2018-02-24T05:09:49.471Z,960.67
2018-02-24T05:10:49.428Z,960.69
2018-02-24T05:11:49.386Z,960.71
2018-02-24T05:12:49.343Z,960.73
2018-02-24T05:13:49.296Z,960.69
2018-02-24T05:14:49.259Z,960.70
2018-02-24T05:15:49.215Z,960.67
2018-02-24T05:16:49.175Z,960.69
2018-02-24T05:17:49.131Z,960.68
2018-02-24T05:18:49.087Z,960.68
2018-02-24T05:19:49.042Z,960.68
2018-02-24T05:20:49.005Z,960.71
2018-02-24T05:21:48.963Z,960.65
2018-02-24T05:22:48.918Z,960.70
2018-02-24T05:23:48.873Z,960.70
2018-02-24T05:24:48.864Z,960.70
2018-02-24T05:25:48.791Z,960.74
2018-02-24T05:26:48.757Z,960.75
2018-02-24T05:27:48.703Z,960.77
2018-02-24T05:28:48.667Z,960.75
2018-02-24T05:29:48.620Z,960.79
2018-02-24T05:30:48.578Z,960.74
2018-02-24T05:31:48.535Z,960.74
2018-02-24T05:32:48.494Z,960.82
2018-02-24T05:33:48.450Z,960.77
2018-02-24T05:34:48.406Z,960.81
2018-02-24T05:35:48.370Z,960.81
2018-02-24T05:36:48.323Z,960.82
2018-02-24T05:37:48.283Z,960.77
2018-02-24T05:38:48.239Z,960.83
2018-02-24T05:39:48.196Z,960.84
2018-02-24T05:40:48.155Z,960.82
2018-02-24T05:41:48.113Z,960.82
2018-02-24T05:42:48.070Z,960.83
2018-02-24T05:43:48.026Z,960.86
2018-02-24T05:44:47.983Z,960.90
2018-02-24T05:45:47.941Z,960.88
2018-02-24T05:46:47.900Z,960.89
2018-02-24T05:47:47.856Z,960.89
2018-02-24T05:48:47.814Z,960.89
2018-02-24T05:49:47.774Z,960.87
2018-02-24T05:50:47.725Z,960.86
2018-02-24T05:51:47.687Z,960.88
2018-02-24T05:52:47.648Z,960.86
2018-02-24T05:53:47.614Z,960.87
2018-02-24T05:54:47.559Z,960.93
2018-02-24T05:55:47.514Z,960.87
2018-02-24T05:56:47.510Z,960.95
2018-02-24T05:57:47.430Z,960.95
2018-02-24T05:58:47.388Z,960.99
2018-02-24T05:59:47.349Z,960.99
2018-02-24T06:00:47.302Z,961.04
2018-02-24T06:01:47.262Z,961.03
2018-02-24T06:02:47.219Z,961.08
2018-02-24T06:03:47.175Z,961.02
2018-02-24T06:04:47.134Z,961.07
2018-02-24T06:05:47.089Z,961.06
2018-02-24T06:06:47.048Z,961.06
2018-02-24T06:07:47.005Z,961.12
2018-02-24T06:08:46.963Z,961.13
2018-02-24T06:09:46.920Z,961.12
2018-02-24T06:10:46.878Z,961.15
2018-02-24T06:11:46.835Z,961.11
2018-02-24T06:12:46.803Z,961.13
2018-02-24T06:13:46.752Z,961.15
2018-02-24T06:14:46.708Z,961.15
2018-02-24T06:15:46.683Z,961.21
2018-02-24T06:16:46.624Z,961.22
2018-02-24T06:17:46.593Z,961.19
2018-02-24T06:18:46.538Z,961.21
2018-02-24T06:19:46.494Z,961.22
2018-02-24T06:20:46.453Z,961.25
2018-02-24T06:21:46.405Z,961.25
2018-02-24T06:22:46.371Z,961.25
2018-02-24T06:23:46.324Z,961.23
2018-02-24T06:24:46.279Z,961.27
2018-02-24T06:25:46.237Z,961.24
2018-02-24T06:26:46.194Z,961.27
2018-02-24T06:27:46.151Z,961.28
2018-02-24T06:28:46.111Z,961.29
2018-02-24T06:29:46.066Z,961.27
2018-02-24T06:30:46.024Z,961.34
2018-02-24T06:31:45.981Z,961.35
2018-02-24T06:32:45.938Z,961.33
2018-02-24T06:33:45.896Z,961.40
2018-02-24T06:34:45.853Z,961.41
2018-02-24T06:35:45.811Z,961.42
2018-02-24T06:36:45.768Z,961.42
2018-02-24T06:37:45.725Z,961.47
2018-02-24T06:38:45.679Z,961.50
2018-02-24T06:39:45.639Z,961.51
2018-02-24T06:40:45.596Z,961.48
2018-02-24T06:41:45.553Z,961.56
2018-02-24T06:42:45.517Z,961.53
2018-02-24T06:43:45.466Z,961.52
2018-02-24T06:44:45.429Z,961.50
2018-02-24T06:45:45.382Z,961.50
2018-02-24T06:46:45.337Z,961.49
2018-02-24T06:47:45.296Z,961.51
2018-02-24T06:48:45.310Z,961.51
2018-02-24T06:49:45.208Z,961.52
2018-02-24T06:50:45.188Z,961.54
2018-02-24T06:51:45.130Z,961.54
2018-02-24T06:52:45.084Z,961.54
2018-02-24T06:53:45.039Z,961.55
2018-02-24T06:54:44.998Z,961.55
2018-02-24T06:55:44.964Z,961.59
2018-02-24T06:56:44.915Z,961.59
2018-02-24T06:57:44.871Z,961.61
2018-02-24T06:58:44.826Z,961.62
2018-02-24T06:59:44.786Z,961.62
2018-02-24T07:00:44.745Z,961.59
2018-02-24T07:01:44.700Z,961.62
2018-02-24T07:02:44.658Z,961.66
2018-02-24T07:03:44.610Z,961.66
2018-02-24T07:04:44.572Z,961.65
2018-02-24T07:05:44.530Z,961.59
2018-02-24T07:06:44.487Z,961.60
2018-02-24T07:07:44.442Z,961.62
2018-02-24T07:08:44.399Z,961.61
2018-02-24T07:09:44.361Z,961.69
2018-02-24T07:10:44.319Z,961.66
2018-02-24T07:11:44.275Z,961.68
2018-02-24T07:12:44.236Z,961.67
2018-02-24T07:13:44.188Z,961.69
2018-02-24T07:14:44.146Z,961.67
2018-02-24T07:15:44.106Z,961.70
2018-02-24T07:16:44.062Z,961.72
2018-02-24T07:17:44.018Z,961.73
2018-02-24T07:18:43.978Z,961.76
2018-02-24T07:19:43.934Z,961.73
2018-02-24T07:20:43.890Z,961.76
2018-02-24T07:21:43.849Z,961.77
2018-02-24T07:22:43.806Z,961.78
2018-02-24T07:23:43.766Z,961.79
2018-02-24T07:24:43.721Z,961.85
2018-02-24T07:25:43.680Z,961.86
2018-02-24T07:26:43.637Z,961.86
2018-02-24T07:27:43.598Z,961.84
2018-02-24T07:28:43.554Z,961.94
2018-02-24T07:29:43.520Z,961.93
2018-02-24T07:30:43.467Z,961.92
2018-02-24T07:31:43.425Z,961.93
2018-02-24T07:32:43.385Z,961.97
2018-02-24T07:33:43.339Z,961.97
2018-02-24T07:34:43.297Z,961.97
2018-02-24T07:35:43.257Z,962.00
2018-02-24T07:36:43.220Z,962.07
2018-02-24T07:37:43.174Z,962.09
2018-02-24T07:38:43.131Z,962.05
2018-02-24T07:39:43.087Z,962.07
2018-02-24T07:40:43.045Z,962.06
2018-02-24T07:41:43.004Z,962.06
2018-02-24T07:42:42.963Z,962.03
2018-02-24T07:43:42.915Z,961.99
2018-02-24T07:44:42.916Z,961.99
2018-02-24T07:45:42.833Z,962.08
2018-02-24T07:46:42.795Z,962.05
2018-02-24T07:47:42.747Z,962.04
2018-02-24T07:48:42.709Z,962.05
2018-02-24T07:49:42.677Z,962.06
2018-02-24T07:50:42.620Z,962.10
2018-02-24T07:51:42.580Z,962.04
2018-02-24T07:52:42.537Z,962.09
2018-02-24T07:53:42.495Z,962.02
2018-02-24T07:54:42.454Z,962.01
2018-02-24T07:55:42.410Z,962.04
2018-02-24T07:56:42.368Z,962.04
2018-02-24T07:57:42.327Z,962.02
2018-02-24T07:58:42.294Z,962.07
2018-02-24T07:59:42.242Z,962.06
2018-02-24T08:00:42.202Z,962.04
2018-02-24T08:01:42.157Z,962.08
2018-02-24T08:02:42.146Z,962.09
2018-02-24T08:03:42.075Z,962.09
2018-02-24T08:04:42.041Z,962.14
2018-02-24T08:05:41.989Z,962.11
2018-02-24T08:06:41.946Z,962.09
2018-02-24T08:07:41.905Z,962.13
2018-02-24T08:08:41.862Z,962.10
2018-02-24T08:09:41.819Z,962.09
2018-02-24T08:10:41.780Z,962.10
2018-02-24T08:11:41.736Z,962.11
2018-02-24T08:12:41.695Z,962.10
2018-02-24T08:13:41.654Z,962.15
2018-02-24T08:14:41.614Z,962.10
2018-02-24T08:15:41.569Z,962.04
2018-02-24T08:16:41.533Z,962.03
2018-02-24T08:17:41.485Z,962.06
2018-02-24T08:18:41.449Z,962.05
2018-02-24T08:19:41.407Z,962.05
2018-02-24T08:20:41.357Z,962.06
2018-02-24T08:21:41.317Z,962.03
2018-02-24T08:22:41.277Z,962.02
2018-02-24T08:23:41.233Z,962.00
2018-02-24T08:24:41.191Z,962.04
2018-02-24T08:25:41.148Z,962.04
2018-02-24T08:26:41.112Z,962.05
2018-02-24T08:27:41.066Z,962.06
2018-02-24T08:28:41.023Z,962.06
2018-02-24T08:29:40.981Z,962.06
2018-02-24T08:30:40.942Z,962.06
2018-02-24T08:31:40.900Z,962.10
2018-02-24T08:32:40.856Z,962.04
2018-02-24T08:33:40.819Z,962.09
2018-02-24T08:34:40.774Z,962.12
2018-02-24T08:35:40.731Z,962.08
2018-02-24T08:36:40.693Z,962.03
2018-02-24T08:37:40.647Z,962.06
2018-02-24T08:38:40.605Z,962.06
2018-02-24T08:39:40.565Z,962.03
2018-02-24T08:40:40.517Z,962.04
2018-02-24T08:41:40.478Z,962.05
2018-02-24T08:42:40.437Z,962.03
2018-02-24T08:43:40.400Z,962.07
2018-02-24T08:44:40.352Z,962.00
2018-02-24T08:45:40.314Z,962.06
2018-02-24T08:46:40.271Z,962.07
2018-02-24T08:47:40.228Z,962.11
2018-02-24T08:48:40.185Z,962.11
2018-02-24T08:49:40.146Z,962.17
2018-02-24T08:50:40.102Z,962.07
2018-02-24T08:51:40.060Z,962.11
2018-02-24T08:52:40.017Z,962.11
2018-02-24T08:53:39.975Z,962.17
2018-02-24T08:54:39.939Z,962.14
2018-02-24T08:55:39.897Z,962.15
2018-02-24T08:56:39.851Z,962.16
2018-02-24T08:57:39.810Z,962.16
2018-02-24T08:58:39.801Z,962.10
2018-02-24T08:59:39.723Z,962.13
2018-02-24T09:00:39.681Z,962.09
2018-02-24T09:01:39.641Z,962.08
2018-02-24T09:02:39.601Z,962.10
2018-02-24T09:03:39.555Z,962.10
2018-02-24T09:04:39.531Z,962.10
2018-02-24T09:05:39.474Z,962.15
2018-02-24T09:06:39.430Z,962.13
2018-02-24T09:07:39.389Z,962.18
2018-02-24T09:08:39.346Z,962.15
2018-02-24T09:09:39.306Z,962.19
2018-02-24T09:10:39.265Z,962.24
2018-02-24T09:11:39.219Z,962.26
2018-02-24T09:12:39.180Z,962.25
2018-02-24T09:13:39.138Z,962.18
2018-02-24T09:14:39.096Z,962.25
2018-02-24T09:15:39.053Z,962.18
2018-02-24T09:16:39.018Z,962.17
2018-02-24T09:17:38.971Z,962.24
2018-02-24T09:18:38.932Z,962.33
2018-02-24T09:19:38.885Z,962.24
2018-02-24T09:20:38.844Z,962.27
2018-02-24T09:21:38.802Z,962.27
2018-02-24T09:22:38.768Z,962.23
2018-02-24T09:23:38.718Z,962.27
2018-02-24T09:24:38.677Z,962.28
2018-02-24T09:25:38.638Z,962.30
2018-02-24T09:26:38.590Z,962.26
2018-02-24T09:27:38.552Z,962.31
2018-02-24T09:28:38.510Z,962.29
2018-02-24T09:29:38.467Z,962.28
2018-02-24T09:30:38.426Z,962.30
2018-02-24T09:31:38.384Z,962.24
2018-02-24T09:32:38.344Z,962.30
2018-02-24T09:33:38.297Z,962.28
2018-02-24T09:34:38.257Z,962.37
2018-02-24T09:35:38.217Z,962.32
2018-02-24T09:36:38.176Z,962.30
2018-02-24T09:37:38.135Z,962.35
2018-02-24T09:38:38.101Z,962.30
2018-02-24T09:39:38.050Z,962.29
2018-02-24T09:40:38.009Z,962.32
2018-02-24T09:41:37.967Z,962.34
2018-02-24T09:42:37.928Z,962.34
2018-02-24T09:43:37.882Z,962.35
2018-02-24T09:44:37.844Z,962.32
2018-02-24T09:45:37.801Z,962.37
2018-02-24T09:46:37.760Z,962.27
2018-02-24T09:47:37.720Z,962.30
2018-02-24T09:48:37.675Z,962.32
2018-02-24T09:49:37.632Z,962.30
2018-02-24T09:50:37.590Z,962.25
2018-02-24T09:51:37.548Z,962.25
2018-02-24T09:52:37.509Z,962.24
2018-02-24T09:53:37.462Z,962.28
2018-02-24T09:54:37.424Z,962.20
2018-02-24T09:55:37.386Z,962.27
2018-02-24T09:56:37.340Z,962.29
2018-02-24T09:57:37.298Z,962.30
2018-02-24T09:58:37.257Z,962.27
2018-02-24T09:59:37.215Z,962.26
2018-02-24T10:00:37.174Z,962.34
2018-02-24T10:01:37.132Z,962.31
2018-02-24T10:02:37.091Z,962.27
2018-02-24T10:03:37.046Z,962.28
2018-02-24T10:04:37.004Z,962.30
2018-02-24T10:05:36.964Z,962.23
2018-02-24T10:06:36.922Z,962.29
2018-02-24T10:07:36.882Z,962.27
2018-02-24T10:08:36.838Z,962.22
2018-02-24T10:09:36.795Z,962.23
2018-02-24T10:10:36.757Z,962.25
2018-02-24T10:11:36.712Z,962.23
2018-02-24T10:12:36.673Z,962.24
2018-02-24T10:13:36.629Z,962.17
2018-02-24T10:14:36.589Z,962.20
2018-02-24T10:15:36.550Z,962.17
2018-02-24T10:16:36.508Z,962.17
2018-02-24T10:17:36.463Z,962.14
2018-02-24T10:18:36.422Z,962.18
2018-02-24T10:19:36.380Z,962.20
2018-02-24T10:20:36.337Z,962.19
2018-02-24T10:21:36.301Z,962.15
2018-02-24T10:22:36.255Z,962.12
2018-02-24T10:23:36.213Z,962.11
2018-02-24T10:24:36.171Z,962.08
2018-02-24T10:25:36.129Z,962.12
2018-02-24T10:26:36.093Z,962.01
2018-02-24T10:27:36.045Z,962.08
2018-02-24T10:28:36.003Z,962.01
2018-02-24T10:29:35.962Z,962.06
2018-02-24T10:30:35.923Z,962.04
2018-02-24T10:31:35.876Z,962.06
2018-02-24T10:32:35.844Z,962.08
2018-02-24T10:33:35.803Z,962.13
2018-02-24T10:34:35.752Z,962.03
2018-02-24T10:35:35.710Z,962.10
2018-02-24T10:36:35.668Z,962.12
2018-02-24T10:37:35.630Z,962.09
2018-02-24T10:38:35.589Z,962.10
2018-02-24T10:39:35.543Z,962.12
2018-02-24T10:40:35.502Z,962.14
2018-02-24T10:41:35.460Z,962.16
2018-02-24T10:42:35.418Z,962.15
2018-02-24T10:43:35.376Z,962.16
2018-02-24T10:44:35.333Z,962.21
2018-02-24T10:45:35.290Z,962.14
2018-02-24T10:46:35.248Z,962.17
2018-02-24T10:47:35.208Z,962.18
2018-02-24T10:48:35.227Z,962.16
2018-02-24T10:49:35.126Z,962.17
2018-02-24T10:50:35.083Z,962.13
2018-02-24T10:51:35.041Z,962.07
2018-02-24T10:52:35.000Z,962.12
2018-02-24T10:53:34.960Z,962.11
2018-02-24T10:54:34.913Z,962.20
2018-02-24T10:55:34.871Z,962.03
2018-02-24T10:56:34.827Z,962.04
2018-02-24T10:57:34.788Z,962.05
2018-02-24T10:58:34.748Z,962.06
2018-02-24T10:59:34.703Z,962.08
2018-02-24T11:00:34.662Z,962.00
2018-02-24T11:01:34.619Z,962.02
2018-02-24T11:02:34.578Z,962.00
2018-02-24T11:03:34.536Z,961.99
2018-02-24T11:04:34.492Z,962.02
2018-02-24T11:05:34.452Z,962.00
2018-02-24T11:06:34.409Z,962.00
2018-02-24T11:07:34.368Z,961.95
2018-02-24T11:08:34.325Z,961.99
2018-02-24T11:09:34.283Z,962.03
2018-02-24T11:10:34.242Z,962.08
2018-02-24T11:11:34.211Z,962.03
2018-02-24T11:12:34.159Z,962.04
2018-02-24T11:13:34.115Z,962.02
2018-02-24T11:14:34.085Z,962.01
2018-02-24T11:15:34.032Z,962.10
2018-02-24T11:16:34.005Z,961.99
2018-02-24T11:17:33.949Z,961.92
2018-02-24T11:18:33.906Z,961.96
2018-02-24T11:19:33.863Z,961.95
2018-02-24T11:20:33.821Z,961.94
2018-02-24T11:21:33.780Z,961.92
2018-02-24T11:22:33.779Z,961.92
2018-02-24T11:23:33.695Z,961.93
2018-02-24T11:24:33.652Z,961.91
2018-02-24T11:25:33.624Z,961.94
2018-02-24T11:26:33.569Z,961.92
2018-02-24T11:27:33.528Z,961.95
2018-02-24T11:28:33.485Z,961.92
2018-02-24T11:29:33.445Z,961.94
2018-02-24T11:30:33.402Z,961.93
2018-02-24T11:31:33.360Z,961.93
2018-02-24T11:32:33.318Z,961.93
2018-02-24T11:33:33.276Z,961.90
2018-02-24T11:34:33.240Z,961.92
2018-02-24T11:35:33.192Z,961.91
2018-02-24T11:36:33.152Z,961.94
2018-02-24T11:37:33.107Z,961.93
2018-02-24T11:38:33.064Z,961.88
2018-02-24T11:39:33.025Z,961.92
2018-02-24T11:40:32.982Z,961.84
2018-02-24T11:41:32.941Z,961.84
2018-02-24T11:42:32.899Z,961.84
2018-02-24T11:43:32.862Z,961.87
2018-02-24T11:44:32.815Z,961.84
2018-02-24T11:45:32.769Z,961.86
2018-02-24T11:46:32.733Z,961.90
2018-02-24T11:47:32.688Z,961.86
2018-02-24T11:48:32.648Z,961.83
2018-02-24T11:49:32.607Z,961.78
2018-02-24T11:50:32.564Z,961.82
2018-02-24T11:51:32.521Z,961.80
2018-02-24T11:52:32.479Z,961.81
2018-02-24T11:53:32.434Z,961.78
2018-02-24T11:54:32.396Z,961.79
2018-02-24T11:55:32.353Z,961.80
2018-02-24T11:56:32.314Z,961.75
2018-02-24T11:57:32.281Z,961.77
2018-02-24T11:58:32.229Z,961.75
2018-02-24T11:59:32.186Z,961.76
2018-02-24T12:00:32.145Z,961.76
2018-02-24T12:01:32.103Z,961.71
2018-02-24T12:02:32.062Z,961.71
2018-02-24T12:03:32.073Z,961.73
2018-02-24T12:04:31.979Z,961.71
2018-02-24T12:05:31.935Z,961.71
2018-02-24T12:06:31.893Z,961.75
2018-02-24T12:07:31.905Z,961.67
2018-02-24T12:08:31.813Z,961.68
2018-02-24T12:09:31.768Z,961.66
2018-02-24T12:10:31.725Z,961.69
2018-02-24T12:11:31.684Z,961.69
2018-02-24T12:12:31.643Z,961.67
2018-02-24T12:13:31.602Z,961.63
2018-02-24T12:14:31.559Z,961.65
2018-02-24T12:15:31.518Z,961.70
2018-02-24T12:16:31.477Z,961.67
2018-02-24T12:17:31.435Z,961.64
2018-02-24T12:18:31.390Z,961.69
2018-02-24T12:19:31.349Z,961.66
2018-02-24T12:20:31.308Z,961.59
2018-02-24T12:21:31.270Z,961.60
2018-02-24T12:22:31.224Z,961.59
2018-02-24T12:23:31.182Z,961.62
2018-02-24T12:24:31.136Z,961.63
2018-02-24T12:25:31.099Z,961.58
2018-02-24T12:26:31.058Z,961.58
2018-02-24T12:27:31.019Z,961.60